sensor_id;sensor_type;location;lat;lon;timestamp;temperature;humidity
12817;DHT22;6473;51.552;6.716;2023-04-03T00:00:30;1.10;99.90
12817;DHT22;6473;51.552;6.716;2023-04-03T00:07:52;1.10;99.90
12817;DHT22;6473;51.552;6.716;2023-04-03T00:15:14;4.00;99.90
12817;DHT22;6473;51.552;6.716;2023-04-03T00:20:09;0.90;99.90
12817;DHT22;6473;51.552;6.716;2023-04-03T00:22:36;0.90;99.90
12817;DHT22;6473;51.552;6.716;2023-04-03T00:32:26;0.90;99.90
12817;DHT22;6473;51.552;6.716;2023-04-03T00:39:47;0.70;99.90
12817;DHT22;6473;51.552;6.716;2023-04-03T00:42:14;0.60;99.90
12817;DHT22;6473;51.552;6.716;2023-04-03T00:48:02;0.70;99.90
12817;DHT22;6473;51.552;6.716;2023-04-03T00:50:34;0.70;99.90
12817;DHT22;6473;51.552;6.716;2023-04-03T00:57:57;0.80;99.90
12817;DHT22;6473;51.552;6.716;2023-04-03T01:16:24;1.00;99.90
12817;DHT22;6473;51.552;6.716;2023-04-03T01:23:22;1.10;99.90
12817;DHT22;6473;51.552;6.716;2023-04-03T01:29:56;1.20;99.90
12817;DHT22;6473;51.552;6.716;2023-04-03T01:43:31;1.20;99.90
12817;DHT22;6473;51.552;6.716;2023-04-03T01:49:59;1.20;99.90
12817;DHT22;6473;51.552;6.716;2023-04-03T01:56:44;1.20;99.90
12817;DHT22;6473;51.552;6.716;2023-04-03T01:59:14;1.20;99.90
12817;DHT22;6473;51.552;6.716;2023-04-03T02:01:43;1.30;99.90
12817;DHT22;6473;51.552;6.716;2023-04-03T02:26:22;1.30;99.90
12817;DHT22;6473;51.552;6.716;2023-04-03T02:28:49;1.30;99.90
12817;DHT22;6473;51.552;6.716;2023-04-03T02:31:16;1.30;99.90
12817;DHT22;6473;51.552;6.716;2023-04-03T02:33:45;1.30;99.90
12817;DHT22;6473;51.552;6.716;2023-04-03T02:38:47;1.30;99.90
12817;DHT22;6473;51.552;6.716;2023-04-03T02:41:14;1.30;99.90
12817;DHT22;6473;51.552;6.716;2023-04-03T02:43:43;1.20;99.90
12817;DHT22;6473;51.552;6.716;2023-04-03T02:46:09;1.20;99.90
12817;DHT22;6473;51.552;6.716;2023-04-03T02:48:37;1.20;99.90
12817;DHT22;6473;51.552;6.716;2023-04-03T02:51:04;1.20;99.90
12817;DHT22;6473;51.552;6.716;2023-04-03T02:56:05;1.20;99.90
12817;DHT22;6473;51.552;6.716;2023-04-03T02:58:31;1.10;99.90
12817;DHT22;6473;51.552;6.716;2023-04-03T03:01:01;1.10;99.90
12817;DHT22;6473;51.552;6.716;2023-04-03T03:03:28;1.20;99.90
12817;DHT22;6473;51.552;6.716;2023-04-03T03:06:02;1.20;99.90
12817;DHT22;6473;51.552;6.716;2023-04-03T03:08:29;1.10;99.90
12817;DHT22;6473;51.552;6.716;2023-04-03T03:10:56;1.20;99.90
12817;DHT22;6473;51.552;6.716;2023-04-03T03:13:23;1.20;99.90
12817;DHT22;6473;51.552;6.716;2023-04-03T03:15:50;1.20;99.90
12817;DHT22;6473;51.552;6.716;2023-04-03T03:18:19;1.20;99.90
12817;DHT22;6473;51.552;6.716;2023-04-03T03:20:46;1.10;99.90
12817;DHT22;6473;51.552;6.716;2023-04-03T03:25:40;1.10;99.90
12817;DHT22;6473;51.552;6.716;2023-04-03T03:28:07;1.10;99.90
12817;DHT22;6473;51.552;6.716;2023-04-03T03:30:35;1.10;99.90
12817;DHT22;6473;51.552;6.716;2023-04-03T03:33:02;1.10;99.90
12817;DHT22;6473;51.552;6.716;2023-04-03T03:35:30;1.10;99.90
12817;DHT22;6473;51.552;6.716;2023-04-03T03:37:57;1.10;99.90
12817;DHT22;6473;51.552;6.716;2023-04-03T03:47:47;1.00;99.90
12817;DHT22;6473;51.552;6.716;2023-04-03T03:52:45;0.90;99.90
12817;DHT22;6473;51.552;6.716;2023-04-03T03:55:12;0.90;99.90
12817;DHT22;6473;51.552;6.716;2023-04-03T03:57:43;0.90;99.90
12817;DHT22;6473;51.552;6.716;2023-04-03T04:02:46;0.90;99.90
12817;DHT22;6473;51.552;6.716;2023-04-03T04:05:17;0.80;99.90
12817;DHT22;6473;51.552;6.716;2023-04-03T04:07:46;0.80;99.90
12817;DHT22;6473;51.552;6.716;2023-04-03T04:10:14;0.80;99.90
12817;DHT22;6473;51.552;6.716;2023-04-03T04:15:11;0.80;99.90
12817;DHT22;6473;51.552;6.716;2023-04-03T04:17:38;0.80;99.90
12817;DHT22;6473;51.552;6.716;2023-04-03T04:20:11;0.70;99.90
12817;DHT22;6473;51.552;6.716;2023-04-03T04:25:08;0.60;99.90
12817;DHT22;6473;51.552;6.716;2023-04-03T04:27:38;0.70;99.90
12817;DHT22;6473;51.552;6.716;2023-04-03T04:30:06;0.60;99.90
12817;DHT22;6473;51.552;6.716;2023-04-03T04:35:05;0.70;99.90
12817;DHT22;6473;51.552;6.716;2023-04-03T04:37:34;0.70;99.90
12817;DHT22;6473;51.552;6.716;2023-04-03T04:40:02;0.70;99.90
12817;DHT22;6473;51.552;6.716;2023-04-03T04:42:31;0.70;99.90
12817;DHT22;6473;51.552;6.716;2023-04-03T04:44:58;0.70;99.90
12817;DHT22;6473;51.552;6.716;2023-04-03T04:47:25;0.70;99.90
12817;DHT22;6473;51.552;6.716;2023-04-03T04:49:56;0.60;99.90
12817;DHT22;6473;51.552;6.716;2023-04-03T04:52:23;0.50;99.90
12817;DHT22;6473;51.552;6.716;2023-04-03T04:59:48;0.60;99.90
12817;DHT22;6473;51.552;6.716;2023-04-03T05:04:44;0.60;99.90
12817;DHT22;6473;51.552;6.716;2023-04-03T05:09:44;0.50;99.90
12817;DHT22;6473;51.552;6.716;2023-04-03T05:12:13;0.60;99.90
12817;DHT22;6473;51.552;6.716;2023-04-03T05:14:48;0.50;99.90
12817;DHT22;6473;51.552;6.716;2023-04-03T05:17:16;0.60;99.90
12817;DHT22;6473;51.552;6.716;2023-04-03T05:19:48;0.60;99.90
12817;DHT22;6473;51.552;6.716;2023-04-03T05:22:17;0.60;99.90
12817;DHT22;6473;51.552;6.716;2023-04-03T05:24:45;0.60;99.90
12817;DHT22;6473;51.552;6.716;2023-04-03T05:29:43;0.60;99.90
12817;DHT22;6473;51.552;6.716;2023-04-03T05:32:15;0.60;99.90
12817;DHT22;6473;51.552;6.716;2023-04-03T05:34:46;0.60;99.90
12817;DHT22;6473;51.552;6.716;2023-04-03T05:37:13;0.70;99.90
12817;DHT22;6473;51.552;6.716;2023-04-03T05:42:09;0.80;99.90
12817;DHT22;6473;51.552;6.716;2023-04-03T05:47:04;1.10;99.90
12817;DHT22;6473;51.552;6.716;2023-04-03T05:49:33;1.20;99.90
12817;DHT22;6473;51.552;6.716;2023-04-03T05:52:00;1.40;99.90
12817;DHT22;6473;51.552;6.716;2023-04-03T05:54:30;1.50;99.90
12817;DHT22;6473;51.552;6.716;2023-04-03T05:57:14;1.70;99.90
12817;DHT22;6473;51.552;6.716;2023-04-03T05:59:41;1.80;99.90
12817;DHT22;6473;51.552;6.716;2023-04-03T06:02:10;2.10;99.90
12817;DHT22;6473;51.552;6.716;2023-04-03T06:04:40;2.30;99.90
12817;DHT22;6473;51.552;6.716;2023-04-03T06:07:09;2.60;99.90
12817;DHT22;6473;51.552;6.716;2023-04-03T06:09:36;3.00;99.90
12817;DHT22;6473;51.552;6.716;2023-04-03T06:12:04;3.60;99.90
12817;DHT22;6473;51.552;6.716;2023-04-03T06:14:31;3.70;99.90
12817;DHT22;6473;51.552;6.716;2023-04-03T06:17:00;3.70;99.90
12817;DHT22;6473;51.552;6.716;2023-04-03T06:19:28;4.10;99.90
12817;DHT22;6473;51.552;6.716;2023-04-03T06:21:58;4.40;99.90
12817;DHT22;6473;51.552;6.716;2023-04-03T06:24:25;4.80;99.90
12817;DHT22;6473;51.552;6.716;2023-04-03T06:26:52;4.70;99.90
12817;DHT22;6473;51.552;6.716;2023-04-03T06:29:20;5.10;99.90
12817;DHT22;6473;51.552;6.716;2023-04-03T06:31:47;5.00;99.90
12817;DHT22;6473;51.552;6.716;2023-04-03T06:34:15;5.10;99.90
12817;DHT22;6473;51.552;6.716;2023-04-03T06:36:42;5.30;99.90
12817;DHT22;6473;51.552;6.716;2023-04-03T06:39:13;5.20;99.90
12817;DHT22;6473;51.552;6.716;2023-04-03T06:41:41;7.30;99.90
12817;DHT22;6473;51.552;6.716;2023-04-03T06:44:08;5.70;99.90
12817;DHT22;6473;51.552;6.716;2023-04-03T06:46:37;6.20;99.50
12817;DHT22;6473;51.552;6.716;2023-04-03T06:49:05;6.50;99.90
12817;DHT22;6473;51.552;6.716;2023-04-03T06:51:33;6.50;96.50
12817;DHT22;6473;51.552;6.716;2023-04-03T06:54:01;7.00;97.60
12817;DHT22;6473;51.552;6.716;2023-04-03T06:56:29;7.30;92.90
12817;DHT22;6473;51.552;6.716;2023-04-03T06:58:56;7.10;92.00
12817;DHT22;6473;51.552;6.716;2023-04-03T07:01:25;8.00;92.50
12817;DHT22;6473;51.552;6.716;2023-04-03T07:03:53;6.70;93.20
12817;DHT22;6473;51.552;6.716;2023-04-03T07:06:20;6.70;97.60
12817;DHT22;6473;51.552;6.716;2023-04-03T07:08:47;7.90;94.70
12817;DHT22;6473;51.552;6.716;2023-04-03T07:11:14;7.80;92.80
12817;DHT22;6473;51.552;6.716;2023-04-03T07:13:43;8.10;81.10
12817;DHT22;6473;51.552;6.716;2023-04-03T07:16:10;8.20;87.30
12817;DHT22;6473;51.552;6.716;2023-04-03T07:18:37;6.60;81.50
12817;DHT22;6473;51.552;6.716;2023-04-03T07:21:05;8.80;72.40
12817;DHT22;6473;51.552;6.716;2023-04-03T07:23:33;9.40;54.60
12817;DHT22;6473;51.552;6.716;2023-04-03T07:26:00;8.70;59.10
12817;DHT22;6473;51.552;6.716;2023-04-03T07:28:27;7.40;55.40
12817;DHT22;6473;51.552;6.716;2023-04-03T07:31:02;8.70;55.00
12817;DHT22;6473;51.552;6.716;2023-04-03T07:33:32;8.90;62.20
12817;DHT22;6473;51.552;6.716;2023-04-03T07:36:02;9.70;43.20
12817;DHT22;6473;51.552;6.716;2023-04-03T07:38:29;9.90;31.80
12817;DHT22;6473;51.552;6.716;2023-04-03T07:40:56;11.00;25.50
12817;DHT22;6473;51.552;6.716;2023-04-03T07:43:24;10.20;22.60
12817;DHT22;6473;51.552;6.716;2023-04-03T07:45:53;10.20;27.30
12817;DHT22;6473;51.552;6.716;2023-04-03T07:48:22;10.20;11.30
12817;DHT22;6473;51.552;6.716;2023-04-03T07:50:50;10.50;19.50
12817;DHT22;6473;51.552;6.716;2023-04-03T07:53:17;11.20;22.80
12817;DHT22;6473;51.552;6.716;2023-04-03T07:55:46;9.90;19.40
12817;DHT22;6473;51.552;6.716;2023-04-03T07:58:16;10.00;28.10
12817;DHT22;6473;51.552;6.716;2023-04-03T08:00:44;12.80;16.20
12817;DHT22;6473;51.552;6.716;2023-04-03T08:03:11;10.70;9.40
12817;DHT22;6473;51.552;6.716;2023-04-03T08:05:41;11.10;19.20
12817;DHT22;6473;51.552;6.716;2023-04-03T08:08:11;12.50;11.90
12817;DHT22;6473;51.552;6.716;2023-04-03T08:10:39;11.00;1.00
12817;DHT22;6473;51.552;6.716;2023-04-03T08:13:07;14.10;11.30
12817;DHT22;6473;51.552;6.716;2023-04-03T08:15:34;9.20;1.00
12817;DHT22;6473;51.552;6.716;2023-04-03T08:18:02;9.80;1.00
12817;DHT22;6473;51.552;6.716;2023-04-03T08:20:29;10.20;23.60
12817;DHT22;6473;51.552;6.716;2023-04-03T08:22:58;10.80;1.00
12817;DHT22;6473;51.552;6.716;2023-04-03T08:25:24;12.30;1.00
12817;DHT22;6473;51.552;6.716;2023-04-03T08:27:51;11.10;1.00
12817;DHT22;6473;51.552;6.716;2023-04-03T08:30:18;10.20;1.00
12817;DHT22;6473;51.552;6.716;2023-04-03T08:32:45;10.00;1.00
12817;DHT22;6473;51.552;6.716;2023-04-03T08:35:13;11.10;1.00
12817;DHT22;6473;51.552;6.716;2023-04-03T08:37:40;12.80;1.00
12817;DHT22;6473;51.552;6.716;2023-04-03T08:40:14;11.40;1.00
12817;DHT22;6473;51.552;6.716;2023-04-03T08:42:50;11.20;1.00
12817;DHT22;6473;51.552;6.716;2023-04-03T08:45:22;11.70;1.00
12817;DHT22;6473;51.552;6.716;2023-04-03T08:47:57;12.10;1.00
12817;DHT22;6473;51.552;6.716;2023-04-03T08:50:31;11.80;1.00
12817;DHT22;6473;51.552;6.716;2023-04-03T08:53:02;10.50;1.00
12817;DHT22;6473;51.552;6.716;2023-04-03T08:55:36;10.60;1.00
12817;DHT22;6473;51.552;6.716;2023-04-03T08:58:06;10.30;1.00
12817;DHT22;6473;51.552;6.716;2023-04-03T09:00:40;10.70;1.00
12817;DHT22;6473;51.552;6.716;2023-04-03T09:03:12;11.10;1.00
12817;DHT22;6473;51.552;6.716;2023-04-03T09:05:43;10.80;1.00
12817;DHT22;6473;51.552;6.716;2023-04-03T09:08:22;13.00;1.00
12817;DHT22;6473;51.552;6.716;2023-04-03T09:10:57;9.90;1.00
12817;DHT22;6473;51.552;6.716;2023-04-03T09:13:31;12.00;1.00
12817;DHT22;6473;51.552;6.716;2023-04-03T09:16:13;10.40;1.00
12817;DHT22;6473;51.552;6.716;2023-04-03T09:18:47;9.70;1.00
12817;DHT22;6473;51.552;6.716;2023-04-03T09:21:21;9.80;1.00
12817;DHT22;6473;51.552;6.716;2023-04-03T09:23:52;10.60;1.00
12817;DHT22;6473;51.552;6.716;2023-04-03T09:26:25;11.00;1.00
12817;DHT22;6473;51.552;6.716;2023-04-03T09:28:54;12.30;1.00
12817;DHT22;6473;51.552;6.716;2023-04-03T09:31:24;12.90;1.00
12817;DHT22;6473;51.552;6.716;2023-04-03T09:33:56;11.70;1.00
12817;DHT22;6473;51.552;6.716;2023-04-03T09:36:38;12.90;1.00
12817;DHT22;6473;51.552;6.716;2023-04-03T09:39:11;11.90;1.00
12817;DHT22;6473;51.552;6.716;2023-04-03T09:41:39;14.70;1.00
12817;DHT22;6473;51.552;6.716;2023-04-03T09:44:20;14.70;1.00
12817;DHT22;6473;51.552;6.716;2023-04-03T09:46:48;12.30;1.00
12817;DHT22;6473;51.552;6.716;2023-04-03T09:49:15;12.00;1.00
12817;DHT22;6473;51.552;6.716;2023-04-03T09:51:43;11.70;1.00
12817;DHT22;6473;51.552;6.716;2023-04-03T09:54:32;10.80;1.00
12817;DHT22;6473;51.552;6.716;2023-04-03T09:57:06;10.70;1.00
12817;DHT22;6473;51.552;6.716;2023-04-03T09:59:34;10.90;1.00
12817;DHT22;6473;51.552;6.716;2023-04-03T10:02:03;10.40;1.00
12817;DHT22;6473;51.552;6.716;2023-04-03T10:04:38;10.20;1.00
12817;DHT22;6473;51.552;6.716;2023-04-03T10:07:28;10.00;1.00
12817;DHT22;6473;51.552;6.716;2023-04-03T10:09:59;10.00;1.00
12817;DHT22;6473;51.552;6.716;2023-04-03T10:12:28;10.10;1.00
12817;DHT22;6473;51.552;6.716;2023-04-03T10:14:57;11.10;1.00
12817;DHT22;6473;51.552;6.716;2023-04-03T10:17:34;10.20;1.00
12817;DHT22;6473;51.552;6.716;2023-04-03T10:20:16;11.30;1.00
12817;DHT22;6473;51.552;6.716;2023-04-03T10:22:56;11.30;1.00
12817;DHT22;6473;51.552;6.716;2023-04-03T10:25:30;11.10;1.00
12817;DHT22;6473;51.552;6.716;2023-04-03T10:28:02;10.10;1.00
12817;DHT22;6473;51.552;6.716;2023-04-03T10:30:34;9.70;1.00
12817;DHT22;6473;51.552;6.716;2023-04-03T10:33:33;9.90;1.00
12817;DHT22;6473;51.552;6.716;2023-04-03T10:36:10;9.80;1.00
12817;DHT22;6473;51.552;6.716;2023-04-03T10:38:46;9.70;1.00
12817;DHT22;6473;51.552;6.716;2023-04-03T10:41:18;9.70;1.00
12817;DHT22;6473;51.552;6.716;2023-04-03T10:44:06;9.40;1.00
12817;DHT22;6473;51.552;6.716;2023-04-03T10:46:38;9.40;1.00
12817;DHT22;6473;51.552;6.716;2023-04-03T10:49:20;9.50;1.00
12817;DHT22;6473;51.552;6.716;2023-04-03T10:51:55;9.80;1.00
12817;DHT22;6473;51.552;6.716;2023-04-03T10:54:26;10.00;1.00
12817;DHT22;6473;51.552;6.716;2023-04-03T10:56:57;10.90;1.00
12817;DHT22;6473;51.552;6.716;2023-04-03T10:59:32;10.30;1.00
12817;DHT22;6473;51.552;6.716;2023-04-03T11:02:01;12.30;1.00
12817;DHT22;6473;51.552;6.716;2023-04-03T11:04:35;10.70;1.00
12817;DHT22;6473;51.552;6.716;2023-04-03T11:07:07;13.40;1.00
12817;DHT22;6473;51.552;6.716;2023-04-03T11:09:40;11.60;1.00
12817;DHT22;6473;51.552;6.716;2023-04-03T11:12:13;10.50;1.00
12817;DHT22;6473;51.552;6.716;2023-04-03T11:14:42;10.80;1.00
12817;DHT22;6473;51.552;6.716;2023-04-03T11:17:19;10.70;1.00
12817;DHT22;6473;51.552;6.716;2023-04-03T11:19:52;10.80;1.00
12817;DHT22;6473;51.552;6.716;2023-04-03T11:22:27;13.50;1.00
12817;DHT22;6473;51.552;6.716;2023-04-03T11:24:59;10.60;1.00
12817;DHT22;6473;51.552;6.716;2023-04-03T11:27:35;11.20;1.00
12817;DHT22;6473;51.552;6.716;2023-04-03T11:30:07;10.80;1.00
12817;DHT22;6473;51.552;6.716;2023-04-03T11:33:00;11.00;1.00
12817;DHT22;6473;51.552;6.716;2023-04-03T11:35:30;11.60;1.00
12817;DHT22;6473;51.552;6.716;2023-04-03T11:38:00;13.00;1.00
12817;DHT22;6473;51.552;6.716;2023-04-03T11:40:29;12.60;1.00
12817;DHT22;6473;51.552;6.716;2023-04-03T11:43:06;10.90;1.00
12817;DHT22;6473;51.552;6.716;2023-04-03T11:45:37;12.70;1.00
12817;DHT22;6473;51.552;6.716;2023-04-03T11:48:09;11.10;1.00
12817;DHT22;6473;51.552;6.716;2023-04-03T11:50:55;11.40;1.00
12817;DHT22;6473;51.552;6.716;2023-04-03T11:53:32;12.50;1.00
12817;DHT22;6473;51.552;6.716;2023-04-03T11:56:26;12.60;1.00
12817;DHT22;6473;51.552;6.716;2023-04-03T11:59:23;13.30;1.00
12817;DHT22;6473;51.552;6.716;2023-04-03T12:01:52;14.00;1.00
12817;DHT22;6473;51.552;6.716;2023-04-03T12:04:21;14.90;1.00
12817;DHT22;6473;51.552;6.716;2023-04-03T12:09:56;14.90;1.00
12817;DHT22;6473;51.552;6.716;2023-04-03T12:12:38;15.50;1.00
12817;DHT22;6473;51.552;6.716;2023-04-03T12:15:22;15.80;1.00
12817;DHT22;6473;51.552;6.716;2023-04-03T12:17:49;15.50;1.00
12817;DHT22;6473;51.552;6.716;2023-04-03T12:20:57;15.90;1.00
12817;DHT22;6473;51.552;6.716;2023-04-03T12:23:29;15.70;1.00
12817;DHT22;6473;51.552;6.716;2023-04-03T12:26:02;15.30;1.00
12817;DHT22;6473;51.552;6.716;2023-04-03T12:28:35;16.10;1.00
12817;DHT22;6473;51.552;6.716;2023-04-03T12:31:04;15.50;1.00
12817;DHT22;6473;51.552;6.716;2023-04-03T12:33:43;15.80;1.00
12817;DHT22;6473;51.552;6.716;2023-04-03T12:36:17;18.00;1.00
12817;DHT22;6473;51.552;6.716;2023-04-03T12:39:01;16.00;1.00
12817;DHT22;6473;51.552;6.716;2023-04-03T12:41:36;15.70;1.00
12817;DHT22;6473;51.552;6.716;2023-04-03T12:44:18;17.20;1.00
12817;DHT22;6473;51.552;6.716;2023-04-03T12:49:33;18.40;1.00
12817;DHT22;6473;51.552;6.716;2023-04-03T12:52:04;17.30;1.00
12817;DHT22;6473;51.552;6.716;2023-04-03T12:54:36;17.80;1.00
12817;DHT22;6473;51.552;6.716;2023-04-03T12:57:12;17.00;1.00
12817;DHT22;6473;51.552;6.716;2023-04-03T12:59:39;19.70;1.00
12817;DHT22;6473;51.552;6.716;2023-04-03T13:02:20;18.40;1.00
12817;DHT22;6473;51.552;6.716;2023-04-03T13:04:49;17.20;1.00
12817;DHT22;6473;51.552;6.716;2023-04-03T13:07:22;15.10;1.00
12817;DHT22;6473;51.552;6.716;2023-04-03T13:10:14;16.00;1.00
12817;DHT22;6473;51.552;6.716;2023-04-03T13:12:49;16.20;1.00
12817;DHT22;6473;51.552;6.716;2023-04-03T13:15:19;15.00;1.00
12817;DHT22;6473;51.552;6.716;2023-04-03T13:17:48;15.10;1.00
12817;DHT22;6473;51.552;6.716;2023-04-03T13:20:21;15.60;1.00
12817;DHT22;6473;51.552;6.716;2023-04-03T13:22:53;16.90;1.00
12817;DHT22;6473;51.552;6.716;2023-04-03T13:25:24;17.10;1.00
12817;DHT22;6473;51.552;6.716;2023-04-03T13:27:53;16.00;1.00
12817;DHT22;6473;51.552;6.716;2023-04-03T13:30:24;16.80;1.00
12817;DHT22;6473;51.552;6.716;2023-04-03T13:32:52;16.70;1.00
12817;DHT22;6473;51.552;6.716;2023-04-03T13:35:35;17.40;1.00
12817;DHT22;6473;51.552;6.716;2023-04-03T13:38:06;18.10;1.00
12817;DHT22;6473;51.552;6.716;2023-04-03T13:40:47;18.20;1.00
12817;DHT22;6473;51.552;6.716;2023-04-03T13:43:19;18.10;1.00
12817;DHT22;6473;51.552;6.716;2023-04-03T13:45:59;19.10;1.00
12817;DHT22;6473;51.552;6.716;2023-04-03T13:48:27;15.50;1.00
12817;DHT22;6473;51.552;6.716;2023-04-03T13:51:02;15.40;1.00
12817;DHT22;6473;51.552;6.716;2023-04-03T13:53:32;15.50;1.00
12817;DHT22;6473;51.552;6.716;2023-04-03T13:56:18;14.50;1.00
12817;DHT22;6473;51.552;6.716;2023-04-03T13:58:59;14.70;1.00
12817;DHT22;6473;51.552;6.716;2023-04-03T14:01:36;16.60;1.00
12817;DHT22;6473;51.552;6.716;2023-04-03T14:04:12;14.40;1.00
12817;DHT22;6473;51.552;6.716;2023-04-03T14:06:39;15.50;1.00
12817;DHT22;6473;51.552;6.716;2023-04-03T14:09:06;14.90;1.00
12817;DHT22;6473;51.552;6.716;2023-04-03T14:11:34;13.80;1.00
12817;DHT22;6473;51.552;6.716;2023-04-03T14:14:06;13.50;1.00
12817;DHT22;6473;51.552;6.716;2023-04-03T14:16:37;13.80;1.00
12817;DHT22;6473;51.552;6.716;2023-04-03T14:19:04;14.50;1.00
12817;DHT22;6473;51.552;6.716;2023-04-03T14:21:32;14.60;1.00
12817;DHT22;6473;51.552;6.716;2023-04-03T14:23:59;15.30;1.00
12817;DHT22;6473;51.552;6.716;2023-04-03T14:26:28;14.40;1.00
12817;DHT22;6473;51.552;6.716;2023-04-03T14:28:57;15.00;1.00
12817;DHT22;6473;51.552;6.716;2023-04-03T14:31:24;16.40;1.00
12817;DHT22;6473;51.552;6.716;2023-04-03T14:33:52;14.80;1.00
12817;DHT22;6473;51.552;6.716;2023-04-03T14:36:21;15.00;1.00
12817;DHT22;6473;51.552;6.716;2023-04-03T14:38:54;14.30;1.00
12817;DHT22;6473;51.552;6.716;2023-04-03T14:41:27;12.50;1.00
12817;DHT22;6473;51.552;6.716;2023-04-03T14:43:53;13.70;1.00
12817;DHT22;6473;51.552;6.716;2023-04-03T14:46:25;14.60;1.00
12817;DHT22;6473;51.552;6.716;2023-04-03T14:48:53;13.20;1.00
12817;DHT22;6473;51.552;6.716;2023-04-03T14:53:47;12.90;1.00
12817;DHT22;6473;51.552;6.716;2023-04-03T14:56:17;14.40;1.00
12817;DHT22;6473;51.552;6.716;2023-04-03T14:58:47;12.60;1.00
12817;DHT22;6473;51.552;6.716;2023-04-03T15:01:16;12.30;1.00
12817;DHT22;6473;51.552;6.716;2023-04-03T15:03:44;12.30;1.00
12817;DHT22;6473;51.552;6.716;2023-04-03T15:06:13;13.60;1.00
12817;DHT22;6473;51.552;6.716;2023-04-03T15:08:41;12.10;1.00
12817;DHT22;6473;51.552;6.716;2023-04-03T15:11:09;13.30;1.00
12817;DHT22;6473;51.552;6.716;2023-04-03T15:13:38;12.20;1.00
12817;DHT22;6473;51.552;6.716;2023-04-03T15:16:06;11.70;1.00
12817;DHT22;6473;51.552;6.716;2023-04-03T15:18:38;12.00;1.00
12817;DHT22;6473;51.552;6.716;2023-04-03T15:21:07;12.00;1.00
12817;DHT22;6473;51.552;6.716;2023-04-03T15:23:33;11.70;1.00
12817;DHT22;6473;51.552;6.716;2023-04-03T15:26:01;12.90;1.00
12817;DHT22;6473;51.552;6.716;2023-04-03T15:28:30;10.80;1.00
12817;DHT22;6473;51.552;6.716;2023-04-03T15:30:59;10.40;1.00
12817;DHT22;6473;51.552;6.716;2023-04-03T15:33:26;12.90;1.00
12817;DHT22;6473;51.552;6.716;2023-04-03T15:35:53;10.40;1.00
12817;DHT22;6473;51.552;6.716;2023-04-03T15:38:22;10.70;1.00
12817;DHT22;6473;51.552;6.716;2023-04-03T15:40:49;10.90;1.00
12817;DHT22;6473;51.552;6.716;2023-04-03T15:43:16;11.00;1.00
12817;DHT22;6473;51.552;6.716;2023-04-03T15:45:44;11.90;1.00
12817;DHT22;6473;51.552;6.716;2023-04-03T15:48:11;11.70;1.00
12817;DHT22;6473;51.552;6.716;2023-04-03T15:50:39;10.40;1.00
12817;DHT22;6473;51.552;6.716;2023-04-03T15:53:07;11.30;1.00
12817;DHT22;6473;51.552;6.716;2023-04-03T15:55:36;10.20;1.00
12817;DHT22;6473;51.552;6.716;2023-04-03T15:58:04;10.10;1.00
12817;DHT22;6473;51.552;6.716;2023-04-03T16:00:31;9.10;1.00
12817;DHT22;6473;51.552;6.716;2023-04-03T16:03:00;8.90;1.00
12817;DHT22;6473;51.552;6.716;2023-04-03T16:05:29;8.90;1.00
12817;DHT22;6473;51.552;6.716;2023-04-03T16:07:57;9.00;1.00
12817;DHT22;6473;51.552;6.716;2023-04-03T16:10:25;10.60;1.00
12817;DHT22;6473;51.552;6.716;2023-04-03T16:12:53;9.30;1.00
12817;DHT22;6473;51.552;6.716;2023-04-03T16:15:20;9.60;1.00
12817;DHT22;6473;51.552;6.716;2023-04-03T16:17:47;10.30;1.00
12817;DHT22;6473;51.552;6.716;2023-04-03T16:20:15;9.00;1.00
12817;DHT22;6473;51.552;6.716;2023-04-03T16:22:42;9.70;1.00
12817;DHT22;6473;51.552;6.716;2023-04-03T16:25:10;8.90;1.00
12817;DHT22;6473;51.552;6.716;2023-04-03T16:27:37;8.70;1.00
12817;DHT22;6473;51.552;6.716;2023-04-03T16:30:08;8.30;1.00
12817;DHT22;6473;51.552;6.716;2023-04-03T16:32:37;8.30;1.00
12817;DHT22;6473;51.552;6.716;2023-04-03T16:35:04;9.50;1.00
12817;DHT22;6473;51.552;6.716;2023-04-03T16:37:31;8.30;1.00
12817;DHT22;6473;51.552;6.716;2023-04-03T16:39:58;10.90;1.00
12817;DHT22;6473;51.552;6.716;2023-04-03T16:42:25;9.20;1.00
12817;DHT22;6473;51.552;6.716;2023-04-03T16:44:52;11.90;1.00
12817;DHT22;6473;51.552;6.716;2023-04-03T16:47:21;8.00;1.00
12817;DHT22;6473;51.552;6.716;2023-04-03T16:49:48;7.20;1.00
12817;DHT22;6473;51.552;6.716;2023-04-03T16:52:17;8.20;1.00
12817;DHT22;6473;51.552;6.716;2023-04-03T16:54:48;10.30;1.00
12817;DHT22;6473;51.552;6.716;2023-04-03T16:57:22;8.10;1.00
12817;DHT22;6473;51.552;6.716;2023-04-03T16:59:51;7.40;1.00
12817;DHT22;6473;51.552;6.716;2023-04-03T17:02:21;10.10;1.00
12817;DHT22;6473;51.552;6.716;2023-04-03T17:04:50;7.80;1.00
12817;DHT22;6473;51.552;6.716;2023-04-03T17:07:18;8.40;1.00
12817;DHT22;6473;51.552;6.716;2023-04-03T17:09:46;10.60;1.00
12817;DHT22;6473;51.552;6.716;2023-04-03T17:12:14;7.70;1.00
12817;DHT22;6473;51.552;6.716;2023-04-03T17:14:42;9.00;1.00
12817;DHT22;6473;51.552;6.716;2023-04-03T17:17:13;8.50;1.00
12817;DHT22;6473;51.552;6.716;2023-04-03T17:19:43;5.70;1.00
12817;DHT22;6473;51.552;6.716;2023-04-03T17:22:11;7.60;1.00
12817;DHT22;6473;51.552;6.716;2023-04-03T17:24:41;10.00;1.00
12817;DHT22;6473;51.552;6.716;2023-04-03T17:27:11;7.20;1.00
12817;DHT22;6473;51.552;6.716;2023-04-03T17:29:41;7.10;1.00
12817;DHT22;6473;51.552;6.716;2023-04-03T17:32:11;7.00;1.60
12817;DHT22;6473;51.552;6.716;2023-04-03T17:34:39;5.60;1.50
12817;DHT22;6473;51.552;6.716;2023-04-03T17:37:08;8.30;1.00
12817;DHT22;6473;51.552;6.716;2023-04-03T17:39:35;7.30;1.00
12817;DHT22;6473;51.552;6.716;2023-04-03T17:42:06;7.10;1.00
12817;DHT22;6473;51.552;6.716;2023-04-03T17:44:34;9.30;1.00
12817;DHT22;6473;51.552;6.716;2023-04-03T17:47:03;6.50;1.00
12817;DHT22;6473;51.552;6.716;2023-04-03T17:49:31;7.10;1.00
12817;DHT22;6473;51.552;6.716;2023-04-03T17:52:01;6.80;1.00
12817;DHT22;6473;51.552;6.716;2023-04-03T17:54:31;8.30;1.00
12817;DHT22;6473;51.552;6.716;2023-04-03T17:56:58;6.80;1.00
12817;DHT22;6473;51.552;6.716;2023-04-03T17:59:30;8.40;1.00
12817;DHT22;6473;51.552;6.716;2023-04-03T18:01:58;5.30;1.00
12817;DHT22;6473;51.552;6.716;2023-04-03T18:04:25;6.40;1.00
12817;DHT22;6473;51.552;6.716;2023-04-03T18:06:56;6.00;15.10
12817;DHT22;6473;51.552;6.716;2023-04-03T18:09:26;6.40;4.80
12817;DHT22;6473;51.552;6.716;2023-04-03T18:11:57;6.40;7.60
12817;DHT22;6473;51.552;6.716;2023-04-03T18:14:27;6.30;13.50
12817;DHT22;6473;51.552;6.716;2023-04-03T18:16:57;4.70;14.40
12817;DHT22;6473;51.552;6.716;2023-04-03T18:19:27;6.20;8.00
12817;DHT22;6473;51.552;6.716;2023-04-03T18:21:56;7.80;17.20
12817;DHT22;6473;51.552;6.716;2023-04-03T18:24:27;8.00;14.60
12817;DHT22;6473;51.552;6.716;2023-04-03T18:27:00;6.50;24.20
12817;DHT22;6473;51.552;6.716;2023-04-03T18:29:29;6.30;19.70
12817;DHT22;6473;51.552;6.716;2023-04-03T18:32:00;6.00;22.30
12817;DHT22;6473;51.552;6.716;2023-04-03T18:34:29;6.10;17.40
12817;DHT22;6473;51.552;6.716;2023-04-03T18:36:56;5.90;27.00
12817;DHT22;6473;51.552;6.716;2023-04-03T18:39:24;7.60;39.40
12817;DHT22;6473;51.552;6.716;2023-04-03T18:41:52;5.90;28.00
12817;DHT22;6473;51.552;6.716;2023-04-03T18:44:22;7.40;27.90
12817;DHT22;6473;51.552;6.716;2023-04-03T18:46:51;7.80;32.10
12817;DHT22;6473;51.552;6.716;2023-04-03T18:49:21;7.30;29.70
12817;DHT22;6473;51.552;6.716;2023-04-03T18:51:49;8.40;27.20
12817;DHT22;6473;51.552;6.716;2023-04-03T18:54:19;3.80;31.70
12817;DHT22;6473;51.552;6.716;2023-04-03T18:56:47;5.60;38.70